Arroyo, PR (00714)

3:35 PM AST on July 02, 2015 (GMT -0400)
tikolj | | Change Station
CLOSE
Current Station
Personal Weather Station
Location: Arroyo,
Elevation: 30 ft
Nearby Weather Stations

Elev 30 ft 17.97 °N, 66.06 °W | Updated 12 seconds ago

Scattered Clouds
Scattered Clouds
88.0 °F
Feels Like 100 °F
N
6.8
Wind Variable Wind from SE

Today
High -- | Low -- °F
--% Chance of Precip.
Yesterday
High -- | Low -- °F
Precip. -- in
5:52 AM 7:03 PM
Full, 99% visible
Pressure 30.06 in
Visibility 10.0 miles
Clouds Few 3400 ft
Scattered Clouds 5000 ft
Heat Index 100 °F
Dew Point 76 °F
Humidity 69%
Rainfall 0.00 in
Snow Depth Not available.
UV 7 out of 12
Pollen Not available.
Air Quality Not available.
Flu Activity Not available.
METAR TJSJ 021856Z 07016G23KT 10SM FEW034 SCT050 31/24 A3006 RMK AO2 SLP177 T03060239

More Conditions Fewer Conditions

Pressure 30.06 in
Visibility 10.0 miles
Clouds Few 3400 ft
Scattered Clouds 5000 ft
Heat Index 100 °F
Dew Point 76 °F
Humidity 69%
Rainfall 0.00 in
Snow Depth Not available.
UV 7 out of 12
Pollen Not available.
Air Quality Not available.
Flu Activity Not available.
METAR TJSJ 021856Z 07016G23KT 10SM FEW034 SCT050 31/24 A3006 RMK AO2 SLP177 T03060239

More Conditions Fewer Conditions

10-Day Weather Forecast

×

Almanac

Astronomy

Jul. 02, 2015 Rise Set
Actual Time
Civil Twilight
Nautical Twilight
Astronomical Twilight
Moon
Length of Visible Light
Length of Day
Tomorrow will be .
, % of the Moon is Illuminated

Today's Extremes

State Highs State Lows

Community

WunderPhotos

Upload Photos

1,834,523 photos uploaded!

WunderBlogs® & News

Nearby

Air Quality

  Air Quality AQ Index Pollutant
Not available.

Snow Depth

Station Depth Elevation

Earthquake Activity

City Distance Mag. Time & Date
Minimum magnitude displayed is 2.5.

Coastal Water Temperatures

Place Temperature

Stations

Nearby Weather Stations

Station Location Temp. Windchill Dew Point Humidity Wind Precip. Elev Updated Type